createdAt,value
2017-07-04T00:00:13.015Z,83.90
2017-07-04T00:02:39.361Z,84.70
2017-07-04T00:05:05.797Z,85.90
2017-07-04T00:07:32.224Z,86.00
2017-07-04T00:09:58.636Z,86.20
2017-07-04T00:12:25.083Z,86.80
2017-07-04T00:14:51.489Z,87.20
2017-07-04T00:17:17.858Z,87.10
2017-07-04T00:19:44.227Z,87.40
2017-07-04T00:22:10.628Z,87.60
2017-07-04T00:24:37.016Z,87.60
2017-07-04T00:27:03.595Z,87.50
2017-07-04T00:29:30.024Z,87.50
2017-07-04T00:31:56.436Z,87.60
2017-07-04T00:34:22.855Z,87.60
2017-07-04T00:36:49.304Z,88.50
2017-07-04T00:39:15.729Z,89.20
2017-07-04T00:41:42.137Z,89.00
2017-07-04T00:44:08.565Z,89.20
2017-07-04T00:46:34.973Z,89.70
2017-07-04T00:49:01.406Z,90.00
2017-07-04T00:51:27.845Z,89.20
2017-07-04T00:53:54.256Z,89.30
2017-07-04T00:56:20.665Z,89.70
2017-07-04T00:58:47.112Z,90.00
2017-07-04T01:01:13.544Z,90.10
2017-07-04T01:03:39.967Z,90.00
2017-07-04T01:06:06.405Z,89.30
2017-07-04T01:08:32.839Z,89.50
2017-07-04T01:10:59.238Z,89.70
2017-07-04T01:13:25.729Z,89.60
2017-07-04T01:15:52.100Z,89.40
2017-07-04T01:18:18.563Z,89.90
2017-07-04T01:20:44.953Z,90.00
2017-07-04T01:23:11.592Z,90.20
2017-07-04T01:25:37.987Z,90.30
2017-07-04T01:28:04.380Z,90.20
2017-07-04T01:30:30.792Z,90.40
2017-07-04T01:32:57.217Z,90.10
2017-07-04T01:35:24.399Z,89.90
2017-07-04T01:37:50.836Z,89.90
2017-07-04T01:40:17.231Z,90.00
2017-07-04T01:42:43.684Z,89.80
2017-07-04T01:45:10.100Z,90.10
2017-07-04T01:47:36.532Z,90.10
2017-07-04T01:50:02.913Z,89.50
2017-07-04T01:52:29.324Z,90.10
2017-07-04T01:54:55.693Z,90.20
2017-07-04T01:57:22.887Z,90.70
2017-07-04T01:59:49.271Z,90.30
2017-07-04T02:02:16.466Z,90.20
2017-07-04T02:04:42.913Z,90.20
2017-07-04T02:07:09.305Z,90.60
2017-07-04T02:09:35.668Z,90.20
2017-07-04T02:12:02.175Z,90.80
2017-07-04T02:14:28.584Z,90.40
2017-07-04T02:16:54.971Z,90.50
2017-07-04T02:19:21.454Z,90.40
2017-07-04T02:21:47.855Z,90.90
2017-07-04T02:24:14.259Z,90.60
2017-07-04T02:26:40.771Z,91.00
2017-07-04T02:29:07.917Z,90.90
2017-07-04T02:31:34.343Z,90.90
2017-07-04T02:34:00.795Z,91.10
2017-07-04T02:36:27.208Z,91.40
2017-07-04T02:38:53.636Z,91.40
2017-07-04T02:41:20.075Z,91.40
2017-07-04T02:43:46.461Z,91.30
2017-07-04T02:46:12.848Z,91.00
2017-07-04T02:48:39.297Z,91.50
2017-07-04T02:51:05.705Z,91.70
2017-07-04T02:53:32.108Z,91.60
2017-07-04T02:55:58.536Z,91.40
2017-07-04T02:58:24.932Z,91.00
2017-07-04T03:00:51.375Z,91.30
2017-07-04T03:03:17.832Z,91.10
2017-07-04T03:05:44.237Z,91.10
2017-07-04T03:08:10.624Z,91.30
2017-07-04T03:10:38.116Z,90.90
2017-07-04T03:13:04.502Z,91.20
2017-07-04T03:15:30.972Z,91.40
2017-07-04T03:17:57.420Z,91.60
2017-07-04T03:20:23.880Z,91.80
2017-07-04T03:22:50.291Z,92.20
2017-07-04T03:25:16.716Z,91.90
2017-07-04T03:27:43.876Z,92.00
2017-07-04T03:30:10.283Z,92.00
2017-07-04T03:32:36.772Z,91.70
2017-07-04T03:35:03.186Z,91.50
2017-07-04T03:37:29.613Z,91.20
2017-07-04T03:39:55.999Z,91.10
2017-07-04T03:42:22.412Z,91.40
2017-07-04T03:44:49.660Z,91.80
2017-07-04T03:47:16.088Z,92.00
2017-07-04T03:49:42.487Z,92.00
2017-07-04T03:52:08.927Z,92.20
2017-07-04T03:54:35.325Z,92.10
2017-07-04T03:57:01.731Z,92.00
2017-07-04T03:59:28.188Z,91.50
2017-07-04T04:01:54.612Z,91.00
2017-07-04T04:04:22.159Z,91.60
2017-07-04T04:06:49.344Z,91.10
2017-07-04T04:09:15.794Z,91.10
2017-07-04T04:11:42.248Z,90.90
2017-07-04T04:14:08.695Z,90.50
2017-07-04T04:16:35.128Z,90.70
2017-07-04T04:19:01.568Z,90.70
2017-07-04T04:21:27.967Z,91.20
2017-07-04T04:23:55.420Z,90.80
2017-07-04T04:26:22.907Z,90.90
2017-07-04T04:28:49.363Z,90.90
2017-07-04T04:31:15.792Z,91.40
2017-07-04T04:33:42.239Z,91.80
2017-07-04T04:36:08.671Z,91.70
2017-07-04T04:38:35.260Z,91.90
2017-07-04T04:41:01.716Z,92.30
2017-07-04T04:43:28.112Z,92.30
2017-07-04T04:45:54.979Z,92.60
2017-07-04T04:48:21.347Z,92.90
2017-07-04T04:50:48.487Z,93.20
2017-07-04T04:53:14.920Z,93.20
2017-07-04T04:55:41.362Z,93.30
2017-07-04T04:58:07.748Z,93.50
2017-07-04T05:00:34.211Z,93.50
2017-07-04T05:03:00.616Z,93.20
2017-07-04T05:05:27.035Z,93.20
2017-07-04T05:07:53.484Z,93.40
2017-07-04T05:10:19.947Z,93.60
2017-07-04T05:12:46.388Z,93.70
2017-07-04T05:15:12.842Z,93.80
2017-07-04T05:17:39.268Z,94.30
2017-07-04T05:20:05.685Z,94.00
2017-07-04T05:22:32.089Z,94.10
2017-07-04T05:24:58.512Z,94.30
2017-07-04T05:27:24.897Z,94.60
2017-07-04T05:29:51.315Z,94.70
2017-07-04T05:32:17.724Z,93.70
2017-07-04T05:34:44.614Z,92.50
2017-07-04T05:37:11.112Z,91.50
2017-07-04T05:39:37.658Z,91.20
2017-07-04T05:42:04.086Z,89.80
2017-07-04T05:44:30.540Z,90.60
2017-07-04T05:46:56.988Z,87.70
2017-07-04T05:49:23.459Z,86.60
2017-07-04T05:51:49.880Z,86.60
2017-07-04T05:54:16.324Z,87.10
2017-07-04T05:56:42.710Z,86.50
2017-07-04T05:59:09.128Z,87.00
2017-07-04T06:01:35.596Z,83.80
2017-07-04T06:04:02.809Z,81.90
2017-07-04T06:06:29.980Z,81.20
2017-07-04T06:08:57.195Z,80.20
2017-07-04T06:11:23.588Z,80.20
2017-07-04T06:13:50.771Z,80.00
2017-07-04T06:16:17.895Z,79.40
2017-07-04T06:18:45.046Z,78.80
2017-07-04T06:21:11.471Z,78.80
2017-07-04T06:23:37.872Z,78.20
2017-07-04T06:26:04.247Z,78.80
2017-07-04T06:28:31.411Z,75.40
2017-07-04T06:30:58.604Z,75.90
2017-07-04T06:33:24.976Z,75.80
2017-07-04T06:35:51.420Z,76.50
2017-07-04T06:38:18.995Z,75.90
2017-07-04T06:40:45.377Z,75.10
2017-07-04T06:43:11.783Z,74.80
2017-07-04T06:45:38.204Z,74.90
2017-07-04T06:48:04.647Z,74.70
2017-07-04T06:50:31.047Z,75.90
2017-07-04T06:52:57.411Z,74.40
2017-07-04T06:55:23.774Z,73.50
2017-07-04T06:57:50.172Z,72.80
2017-07-04T07:00:16.687Z,72.80
2017-07-04T07:02:43.042Z,72.80
2017-07-04T07:05:09.451Z,71.90
2017-07-04T07:07:35.819Z,71.10
2017-07-04T07:10:02.255Z,69.70
2017-07-04T07:12:28.715Z,69.60
2017-07-04T07:14:55.087Z,71.00
2017-07-04T07:17:22.200Z,69.60
2017-07-04T07:19:49.387Z,66.20
2017-07-04T07:22:15.774Z,66.20
2017-07-04T07:24:42.908Z,63.10
2017-07-04T07:27:09.323Z,63.10
2017-07-04T07:29:35.691Z,62.70
2017-07-04T07:32:02.087Z,60.60
2017-07-04T07:34:28.572Z,62.40
2017-07-04T07:36:54.976Z,61.10
2017-07-04T07:39:21.406Z,64.00
2017-07-04T07:41:47.887Z,61.30
2017-07-04T07:44:15.324Z,64.60
2017-07-04T07:46:41.718Z,63.30
2017-07-04T07:49:08.226Z,62.00
2017-07-04T07:51:35.296Z,60.10
2017-07-04T07:54:01.676Z,59.30
2017-07-04T07:56:28.162Z,60.00
2017-07-04T07:58:54.623Z,60.00
2017-07-04T08:01:20.992Z,63.60
2017-07-04T08:03:47.448Z,57.90
2017-07-04T08:06:13.876Z,59.30
2017-07-04T08:08:40.252Z,58.90
2017-07-04T08:11:06.659Z,58.30
2017-07-04T08:13:33.780Z,57.70
2017-07-04T08:16:00.188Z,57.60
2017-07-04T08:18:27.381Z,57.10
2017-07-04T08:20:53.768Z,57.10
2017-07-04T08:23:20.188Z,56.60
2017-07-04T08:25:48.220Z,55.90
2017-07-04T08:28:15.380Z,59.10
2017-07-04T08:30:41.759Z,59.20
2017-07-04T08:33:08.961Z,60.00
2017-07-04T08:35:35.344Z,60.00
2017-07-04T08:38:02.467Z,58.40
2017-07-04T08:40:28.922Z,58.30
2017-07-04T08:42:55.330Z,57.30
2017-07-04T08:45:22.765Z,56.90
2017-07-04T08:47:49.191Z,57.70
2017-07-04T08:50:15.583Z,57.40
2017-07-04T08:52:42.704Z,58.20
2017-07-04T08:55:09.172Z,57.90
2017-07-04T08:57:35.559Z,56.80
2017-07-04T09:00:01.997Z,55.60
2017-07-04T09:02:28.386Z,55.60
2017-07-04T09:04:54.768Z,55.60
2017-07-04T09:07:21.195Z,55.20
2017-07-04T09:09:47.632Z,55.90
2017-07-04T09:12:14.035Z,52.20
2017-07-04T09:14:40.507Z,56.30
2017-07-04T09:17:06.915Z,57.00
2017-07-04T09:19:33.303Z,53.80
2017-07-04T09:21:59.704Z,54.60
2017-07-04T09:24:26.129Z,48.50
2017-07-04T09:26:52.579Z,47.90
2017-07-04T09:29:20.059Z,43.40
2017-07-04T09:31:47.215Z,44.00
2017-07-04T09:34:13.651Z,44.10
2017-07-04T09:36:40.052Z,45.00
2017-07-04T09:39:06.415Z,45.40
2017-07-04T09:41:32.807Z,46.50
2017-07-04T09:43:59.223Z,45.20
2017-07-04T09:46:25.664Z,45.90
2017-07-04T09:48:53.132Z,45.00
2017-07-04T09:51:19.571Z,38.00
2017-07-04T09:53:45.963Z,34.80
2017-07-04T09:56:12.387Z,31.60
2017-07-04T09:58:38.784Z,27.80
2017-07-04T10:01:05.203Z,26.70
2017-07-04T10:03:31.621Z,28.70
2017-07-04T10:05:59.107Z,29.10
2017-07-04T10:08:25.523Z,29.20
2017-07-04T10:10:51.924Z,28.60
2017-07-04T10:13:18.355Z,27.30
2017-07-04T10:15:45.857Z,27.40
2017-07-04T10:18:12.275Z,27.30
2017-07-04T10:20:38.669Z,27.20
2017-07-04T10:23:05.112Z,28.90
2017-07-04T10:25:31.511Z,30.40
2017-07-04T10:27:57.915Z,32.60
2017-07-04T10:30:24.308Z,34.60
2017-07-04T10:32:50.689Z,37.10
2017-07-04T10:35:17.088Z,36.30
2017-07-04T10:37:43.503Z,40.50
2017-07-04T10:40:09.960Z,41.40
2017-07-04T10:42:37.191Z,42.40
2017-07-04T10:45:03.585Z,42.40
2017-07-04T10:47:29.992Z,44.00
2017-07-04T10:49:56.411Z,41.80
2017-07-04T10:52:23.563Z,44.90
2017-07-04T10:54:49.949Z,44.90
2017-07-04T10:57:16.385Z,45.60
2017-07-04T10:59:43.593Z,45.60
2017-07-04T11:02:09.972Z,45.60
2017-07-04T11:04:36.373Z,44.40
2017-07-04T11:07:02.763Z,44.80
2017-07-04T11:09:29.120Z,45.90
2017-07-04T11:11:55.567Z,45.90
2017-07-04T11:14:21.965Z,46.40
2017-07-04T11:16:48.371Z,46.40
2017-07-04T11:19:14.844Z,45.40
2017-07-04T11:21:41.234Z,45.00
2017-07-04T11:24:07.601Z,43.70
2017-07-04T11:26:34.035Z,43.40
2017-07-04T11:29:00.386Z,46.30
2017-07-04T11:31:26.783Z,45.40
2017-07-04T11:33:53.180Z,46.50
2017-07-04T11:36:19.598Z,44.60
2017-07-04T11:38:46.717Z,45.70
2017-07-04T11:41:13.120Z,45.80
2017-07-04T11:43:39.513Z,45.30
2017-07-04T11:46:05.900Z,44.00
2017-07-04T11:48:32.337Z,42.30
2017-07-04T11:50:59.528Z,42.60
2017-07-04T11:53:25.900Z,42.70
2017-07-04T11:55:52.291Z,45.80
2017-07-04T11:58:18.689Z,45.30
2017-07-04T12:00:45.067Z,43.30
2017-07-04T12:03:12.255Z,41.20
2017-07-04T12:05:38.695Z,41.10
2017-07-04T12:08:05.128Z,41.10
2017-07-04T12:10:32.324Z,41.70
2017-07-04T12:12:58.743Z,41.70
2017-07-04T12:15:25.134Z,42.30
2017-07-04T12:17:51.511Z,41.80
2017-07-04T12:20:17.987Z,42.10
2017-07-04T12:22:44.627Z,41.40
2017-07-04T12:25:11.013Z,39.40
2017-07-04T12:27:37.590Z,42.80
2017-07-04T12:30:04.798Z,37.80
2017-07-04T12:32:31.113Z,38.10
2017-07-04T12:34:58.252Z,39.20
2017-07-04T12:37:24.599Z,39.10
2017-07-04T12:39:50.989Z,40.30
2017-07-04T12:42:17.377Z,38.70
2017-07-04T12:44:43.793Z,42.10
2017-07-04T12:47:10.204Z,45.40
2017-07-04T12:49:36.639Z,43.10
2017-07-04T12:52:03.053Z,40.30
2017-07-04T12:54:29.431Z,41.10
2017-07-04T12:56:55.833Z,39.80
2017-07-04T12:59:22.308Z,35.00
2017-07-04T13:01:48.700Z,35.40
2017-07-04T13:04:15.140Z,36.10
2017-07-04T13:06:42.688Z,38.20
2017-07-04T13:09:09.079Z,35.70
2017-07-04T13:11:35.497Z,35.60
2017-07-04T13:14:01.882Z,35.80
2017-07-04T13:16:28.664Z,26.60
2017-07-04T13:18:57.063Z,25.90
2017-07-04T13:21:23.527Z,25.90
2017-07-04T13:23:49.924Z,26.60
2017-07-04T13:26:16.531Z,29.30
2017-07-04T13:28:43.143Z,30.60
2017-07-04T13:31:09.540Z,32.60
2017-07-04T13:33:35.945Z,28.60
2017-07-04T13:36:02.353Z,27.20
2017-07-04T13:38:28.804Z,26.00
2017-07-04T13:40:55.240Z,22.20
2017-07-04T13:43:21.768Z,21.40
2017-07-04T13:45:48.204Z,19.70
2017-07-04T13:48:14.636Z,19.80
2017-07-04T13:50:41.040Z,17.90
2017-07-04T13:53:07.397Z,19.00
2017-07-04T13:55:34.543Z,17.70
2017-07-04T13:58:01.653Z,18.40
2017-07-04T14:00:28.217Z,18.40
2017-07-04T14:02:54.745Z,20.30
2017-07-04T14:05:21.141Z,20.80
2017-07-04T14:07:47.548Z,19.00
2017-07-04T14:10:13.937Z,20.20
2017-07-04T14:12:40.284Z,18.60
2017-07-04T14:15:07.408Z,19.40
2017-07-04T14:17:33.943Z,19.30
2017-07-04T14:20:00.360Z,18.80
2017-07-04T14:22:26.704Z,17.00
2017-07-04T14:24:53.089Z,17.80
2017-07-04T14:27:20.240Z,19.70
2017-07-04T14:29:46.620Z,19.60
2017-07-04T14:32:13.808Z,19.70
2017-07-04T14:34:40.169Z,19.70
2017-07-04T14:37:06.534Z,20.40
2017-07-04T14:39:32.952Z,25.10
2017-07-04T14:41:59.329Z,24.90
2017-07-04T14:44:25.709Z,26.00
2017-07-04T14:46:52.904Z,31.30
2017-07-04T14:49:19.268Z,31.20
2017-07-04T14:51:46.776Z,27.80
2017-07-04T14:54:13.211Z,29.70
2017-07-04T14:56:39.617Z,28.50
2017-07-04T14:59:05.991Z,26.30
2017-07-04T15:01:33.376Z,23.40
2017-07-04T15:03:59.752Z,25.00
2017-07-04T15:06:26.869Z,25.10
2017-07-04T15:08:53.277Z,25.20
2017-07-04T15:11:20.391Z,27.80
2017-07-04T15:13:46.782Z,27.80
2017-07-04T15:16:13.176Z,29.70
2017-07-04T15:18:39.537Z,28.10
2017-07-04T15:21:05.991Z,29.90
2017-07-04T15:23:32.395Z,31.00
2017-07-04T15:25:58.833Z,30.00
2017-07-04T15:28:25.236Z,31.00
2017-07-04T15:30:51.632Z,32.60
2017-07-04T15:33:18.064Z,34.60
2017-07-04T15:35:44.484Z,33.30
2017-07-04T15:38:10.964Z,35.10
2017-07-04T15:40:37.400Z,35.60
2017-07-04T15:43:03.817Z,36.00
2017-07-04T15:45:30.268Z,38.50
2017-07-04T15:47:56.722Z,35.60
2017-07-04T15:50:23.116Z,36.70
2017-07-04T15:52:49.528Z,36.20
2017-07-04T15:55:16.029Z,36.40
2017-07-04T15:57:42.591Z,35.80
2017-07-04T16:00:09.072Z,35.30
2017-07-04T16:02:35.488Z,35.40
2017-07-04T16:05:02.088Z,38.00
2017-07-04T16:07:29.284Z,37.10
2017-07-04T16:09:55.787Z,37.10
2017-07-04T16:12:22.192Z,36.60
2017-07-04T16:14:48.601Z,37.20
2017-07-04T16:17:14.996Z,38.40
2017-07-04T16:19:41.388Z,37.10
2017-07-04T16:22:07.827Z,39.70
2017-07-04T16:24:34.236Z,38.90
2017-07-04T16:27:00.648Z,38.20
2017-07-04T16:29:27.052Z,38.70
2017-07-04T16:31:53.456Z,37.40
2017-07-04T16:34:19.812Z,38.30
2017-07-04T16:36:46.218Z,38.60
2017-07-04T16:39:13.401Z,39.20
2017-07-04T16:41:39.800Z,39.20
2017-07-04T16:44:06.222Z,41.80
2017-07-04T16:46:33.658Z,39.70
2017-07-04T16:49:00.071Z,41.60
2017-07-04T16:51:26.492Z,41.60
2017-07-04T16:53:52.998Z,42.00
2017-07-04T16:56:19.520Z,44.30
2017-07-04T16:58:45.989Z,44.80
2017-07-04T17:01:14.136Z,44.40
2017-07-04T17:03:40.502Z,48.60
2017-07-04T17:06:07.648Z,48.20
2017-07-04T17:08:34.826Z,47.80
2017-07-04T17:11:01.192Z,47.80
2017-07-04T17:13:27.612Z,48.00
2017-07-04T17:15:54.752Z,48.70
2017-07-04T17:18:21.211Z,48.70
2017-07-04T17:20:47.632Z,51.60
2017-07-04T17:23:14.068Z,50.50
2017-07-04T17:25:40.432Z,49.80
2017-07-04T17:28:06.874Z,50.70
2017-07-04T17:30:33.275Z,49.70
2017-07-04T17:32:59.659Z,51.40
2017-07-04T17:35:26.099Z,51.60
2017-07-04T17:37:52.465Z,50.00
2017-07-04T17:40:18.859Z,50.00
2017-07-04T17:42:45.274Z,48.90
2017-07-04T17:45:11.712Z,50.70
2017-07-04T17:47:38.128Z,50.00
2017-07-04T17:50:04.540Z,50.10
2017-07-04T17:52:30.907Z,49.20
2017-07-04T17:54:57.305Z,50.00
2017-07-04T17:57:23.672Z,51.00
2017-07-04T17:59:50.089Z,49.80
2017-07-04T18:02:16.459Z,52.20
2017-07-04T18:04:42.912Z,52.00
2017-07-04T18:07:09.340Z,51.00
2017-07-04T18:09:35.764Z,53.50
2017-07-04T18:12:02.175Z,51.60
2017-07-04T18:14:28.617Z,53.20
2017-07-04T18:16:55.008Z,52.10
2017-07-04T18:19:21.433Z,53.20
2017-07-04T18:21:48.679Z,55.40
2017-07-04T18:24:15.301Z,54.80
2017-07-04T18:26:41.783Z,56.30
2017-07-04T18:29:08.193Z,56.50
2017-07-04T18:31:34.568Z,57.20
2017-07-04T18:34:00.992Z,56.30
2017-07-04T18:36:27.425Z,58.30
2017-07-04T18:38:54.597Z,60.70
2017-07-04T18:41:21.048Z,60.70
2017-07-04T18:43:47.596Z,59.40
2017-07-04T18:46:14.092Z,59.60
2017-07-04T18:48:40.617Z,60.40
2017-07-04T18:51:07.105Z,61.50
2017-07-04T18:53:33.762Z,62.10
2017-07-04T18:56:01.112Z,60.90
2017-07-04T18:58:28.515Z,60.80
2017-07-04T19:00:55.054Z,60.70
2017-07-04T19:03:21.577Z,61.20
2017-07-04T19:05:48.448Z,60.90
2017-07-04T19:08:14.943Z,61.20
2017-07-04T19:10:41.668Z,61.50
2017-07-04T19:13:08.108Z,63.80
2017-07-04T19:15:34.744Z,62.70
2017-07-04T19:18:01.270Z,63.80
2017-07-04T19:20:27.744Z,63.50
2017-07-04T19:22:54.525Z,63.90
2017-07-04T19:25:21.499Z,64.40
2017-07-04T19:27:48.232Z,65.20
2017-07-04T19:30:15.148Z,66.10
2017-07-04T19:32:42.442Z,65.60
2017-07-04T19:35:09.624Z,66.70
2017-07-04T19:37:36.791Z,66.70
2017-07-04T19:40:04.033Z,66.50
2017-07-04T19:42:31.134Z,67.80
2017-07-04T19:44:58.070Z,69.60
2017-07-04T19:47:25.343Z,69.50
2017-07-04T19:49:52.394Z,70.40
2017-07-04T19:52:19.318Z,70.10
2017-07-04T19:54:46.593Z,69.60
2017-07-04T19:57:14.127Z,70.00
2017-07-04T19:59:41.558Z,69.70
2017-07-04T20:02:09.261Z,69.40
2017-07-04T20:04:36.930Z,69.50
2017-07-04T20:07:04.722Z,69.90
2017-07-04T20:09:32.714Z,71.00
2017-07-04T20:11:59.668Z,71.20
2017-07-04T20:14:26.357Z,71.90
2017-07-04T20:16:53.443Z,71.70
2017-07-04T20:19:20.377Z,70.50
2017-07-04T20:21:47.313Z,69.90
2017-07-04T20:24:14.449Z,70.30
2017-07-04T20:26:41.962Z,70.90
2017-07-04T20:29:08.921Z,70.90
2017-07-04T20:31:36.042Z,71.80
2017-07-04T20:34:03.633Z,71.60
2017-07-04T20:36:30.952Z,72.10
2017-07-04T20:38:58.230Z,72.30
2017-07-04T20:41:25.543Z,72.70
2017-07-04T20:43:52.374Z,72.60
2017-07-04T20:46:18.954Z,73.10
2017-07-04T20:48:46.323Z,74.00
2017-07-04T20:51:12.848Z,73.90
2017-07-04T20:53:40.124Z,74.40
2017-07-04T20:56:06.679Z,74.60
2017-07-04T20:58:33.180Z,74.70
2017-07-04T21:00:59.663Z,75.50
2017-07-04T21:03:26.090Z,76.00
2017-07-04T21:05:52.557Z,75.80
2017-07-04T21:08:18.962Z,76.40
2017-07-04T21:10:45.383Z,75.30
2017-07-04T21:13:11.830Z,75.30
2017-07-04T21:15:38.284Z,76.60
2017-07-04T21:18:04.888Z,75.60
2017-07-04T21:20:31.289Z,76.10
2017-07-04T21:22:57.703Z,76.10
2017-07-04T21:25:24.156Z,76.20
2017-07-04T21:27:51.334Z,77.20
2017-07-04T21:30:17.771Z,76.40
2017-07-04T21:32:44.140Z,76.60
2017-07-04T21:35:10.572Z,76.70
2017-07-04T21:37:37.781Z,77.40
2017-07-04T21:40:04.135Z,77.30
2017-07-04T21:42:30.548Z,78.00
2017-07-04T21:44:57.264Z,78.10
2017-07-04T21:47:24.527Z,77.70
2017-07-04T21:49:51.155Z,77.70
2017-07-04T21:52:17.801Z,78.30
2017-07-04T21:54:44.488Z,78.70
2017-07-04T21:57:10.992Z,79.30
2017-07-04T21:59:38.205Z,79.30
2017-07-04T22:02:05.063Z,79.30
2017-07-04T22:04:31.580Z,79.20
2017-07-04T22:06:58.969Z,79.20
2017-07-04T22:09:25.777Z,79.20
2017-07-04T22:11:52.579Z,79.00
2017-07-04T22:14:19.048Z,80.00
2017-07-04T22:16:45.430Z,80.50
2017-07-04T22:19:11.830Z,80.90
2017-07-04T22:21:39.329Z,81.40
2017-07-04T22:24:07.557Z,81.90
2017-07-04T22:26:34.012Z,81.90
2017-07-04T22:29:00.475Z,81.50
2017-07-04T22:31:26.901Z,81.60
2017-07-04T22:33:53.342Z,81.70
2017-07-04T22:36:19.831Z,81.60
2017-07-04T22:38:46.224Z,82.40
2017-07-04T22:41:12.656Z,82.50
2017-07-04T22:43:39.121Z,82.20
2017-07-04T22:46:05.504Z,82.60
2017-07-04T22:48:31.979Z,82.70
2017-07-04T22:50:58.363Z,82.60
2017-07-04T22:53:24.757Z,83.10
2017-07-04T22:55:51.205Z,83.00
2017-07-04T22:58:17.620Z,83.10
2017-07-04T23:00:44.012Z,83.70
2017-07-04T23:03:10.444Z,83.50
2017-07-04T23:05:36.856Z,83.60
2017-07-04T23:08:03.336Z,83.80
2017-07-04T23:10:29.744Z,84.00
2017-07-04T23:12:56.890Z,84.10
2017-07-04T23:15:23.720Z,84.10
2017-07-04T23:17:50.198Z,84.20
2017-07-04T23:20:17.348Z,83.70
2017-07-04T23:22:43.765Z,83.60
2017-07-04T23:25:10.188Z,84.20
2017-07-04T23:27:36.605Z,84.00
2017-07-04T23:30:03.060Z,84.00
2017-07-04T23:32:29.492Z,84.00
2017-07-04T23:34:55.888Z,84.80
2017-07-04T23:37:22.273Z,84.50
2017-07-04T23:39:48.701Z,84.70
2017-07-04T23:42:15.088Z,85.60
2017-07-04T23:44:42.260Z,85.90
2017-07-04T23:47:08.684Z,85.90
2017-07-04T23:49:35.072Z,86.00
2017-07-04T23:52:02.233Z,86.60
2017-07-04T23:54:28.673Z,86.60
2017-07-04T23:56:55.076Z,86.90
2017-07-04T23:59:21.467Z,87.30
